Time,TemperatureF,DewpointF,PressureIn,WindDirection,WindDirectionDegrees,WindSpeedMPH,WindSpeedGustMPH,Humidity,HourlyPrecipIn,Conditions,Clouds,dailyrainin,SoftwareType,DateUTC
2013-08-11 00:01:00,84.2,78.5,29.89,NNE,13,5.0,8.0,83,0.00,,,0.00,VWS V14.01,2013-08-11 06:01:00,
2013-08-11 00:06:00,84.2,78.8,29.89,NNW,339,6.0,9.0,84,0.00,,,0.00,VWS V14.01,2013-08-11 06:06:00,
2013-08-11 00:11:00,84.1,78.4,29.89,NNE,23,7.0,14.0,83,0.00,,,0.00,VWS V14.01,2013-08-11 06:11:00,
2013-08-11 00:16:00,84.0,78.3,29.89,ESE,111,8.0,14.0,83,0.00,,,0.00,VWS V14.01,2013-08-11 06:16:00,
2013-08-11 00:21:00,84.1,78.4,29.89,NNE,28,2.0,14.0,83,0.00,,,0.00,VWS V14.01,2013-08-11 06:21:00,
2013-08-11 00:27:00,84.1,78.8,29.89,ENE,60,4.0,14.0,84,0.00,,,0.00,VWS V14.01,2013-08-11 06:27:00,
2013-08-11 00:32:00,84.0,78.7,29.89,NNW,333,7.0,13.0,84,0.00,,,0.00,VWS V14.01,2013-08-11 06:32:00,
2013-08-11 00:37:00,84.0,78.3,29.89,ENE,63,5.0,14.0,83,0.00,,,0.00,VWS V14.01,2013-08-11 06:37:00,
2013-08-11 00:42:00,84.0,78.3,29.89,North,359,5.0,14.0,83,0.00,,,0.00,VWS V14.01,2013-08-11 06:42:00,
2013-08-11 00:47:00,84.0,78.7,29.89,NE,56,3.0,14.0,84,0.00,,,0.00,VWS V14.01,2013-08-11 06:47:00,
2013-08-11 00:52:00,84.0,78.7,29.88,NE,52,2.0,14.0,84,0.00,,,0.00,VWS V14.01,2013-08-11 06:52:00,
2013-08-11 00:57:00,83.9,78.6,29.88,ENE,65,3.0,14.0,84,0.00,,,0.00,VWS V14.01,2013-08-11 06:57:00,
2013-08-11 01:02:00,83.9,78.6,29.88,NNE,27,6.0,7.0,84,0.00,,,0.00,VWS V14.01,2013-08-11 07:02:00,
2013-08-11 01:07:00,83.9,78.6,29.88,NNE,23,1.0,11.0,84,0.00,,,0.00,VWS V14.01,2013-08-11 07:07:00,
2013-08-11 01:12:00,83.9,78.6,29.88,NNE,26,3.0,12.0,84,0.00,,,0.00,VWS V14.01,2013-08-11 07:12:00,
2013-08-11 01:17:00,83.7,77.6,29.88,ENE,67,4.0,13.0,82,0.00,,,0.00,VWS V14.01,2013-08-11 07:17:00,
2013-08-11 01:22:00,83.8,78.1,29.87,ENE,69,4.0,13.0,83,0.00,,,0.00,VWS V14.01,2013-08-11 07:22:00,
2013-08-11 01:27:00,83.9,78.2,29.87,East,82,3.0,13.0,83,0.00,,,0.00,VWS V14.01,2013-08-11 07:27:00,
2013-08-11 01:33:00,83.8,77.7,29.87,NE,34,2.0,10.0,82,0.00,,,0.00,VWS V14.01,2013-08-11 07:33:00,
2013-08-11 01:38:00,83.8,78.1,29.87,NE,53,4.0,10.0,83,0.00,,,0.00,VWS V14.01,2013-08-11 07:38:00,
2013-08-11 01:43:00,83.8,78.1,29.87,NNE,23,2.0,10.0,83,0.00,,,0.00,VWS V14.01,2013-08-11 07:43:00,
2013-08-11 01:48:00,83.7,78.0,29.86,NE,56,3.0,12.0,83,0.00,,,0.00,VWS V14.01,2013-08-11 07:48:00,
2013-08-11 01:53:00,83.7,77.6,29.86,ENE,64,4.0,12.0,82,0.00,,,0.00,VWS V14.01,2013-08-11 07:53:00,
2013-08-11 01:58:00,83.7,78.0,29.86,North,354,2.0,12.0,83,0.00,,,0.00,VWS V14.01,2013-08-11 07:58:00,
2013-08-11 02:03:00,83.7,78.0,29.86,ENE,75,2.0,12.0,83,0.00,,,0.00,VWS V14.01,2013-08-11 08:03:00,
2013-08-11 02:08:00,83.7,78.0,29.86,NE,41,3.0,12.0,83,0.00,,,0.00,VWS V14.01,2013-08-11 08:08:00,
2013-08-11 02:13:00,83.6,77.9,29.86,ENE,59,5.0,12.0,83,0.00,,,0.00,VWS V14.01,2013-08-11 08:13:00,
2013-08-11 02:19:00,83.6,77.9,29.85,ENE,60,4.0,14.0,83,0.00,,,0.00,VWS V14.01,2013-08-11 08:19:00,
2013-08-11 02:24:00,83.6,77.9,29.85,NE,51,4.0,14.0,83,0.00,,,0.00,VWS V14.01,2013-08-11 08:24:00,
2013-08-11 02:29:00,83.6,77.9,29.85,ENE,72,4.0,15.0,83,0.00,,,0.00,VWS V14.01,2013-08-11 08:29:00,
2013-08-11 02:34:00,83.6,77.9,29.86,ENE,68,5.0,10.0,83,0.00,,,0.00,VWS V14.01,2013-08-11 08:34:00,
2013-08-11 02:39:00,83.6,77.9,29.86,NE,56,4.0,12.0,83,0.00,,,0.00,VWS V14.01,2013-08-11 08:39:00,
2013-08-11 02:44:00,83.6,77.9,29.86,ENE,67,5.0,12.0,83,0.00,,,0.00,VWS V14.01,2013-08-11 08:44:00,
2013-08-11 02:49:00,83.5,77.8,29.86,ENE,61,4.0,14.0,83,0.00,,,0.00,VWS V14.01,2013-08-11 08:49:00,
2013-08-11 02:54:00,83.6,77.9,29.86,ENE,72,5.0,14.0,83,0.00,,,0.00,VWS V14.01,2013-08-11 08:54:00,
2013-08-11 02:59:00,83.6,77.9,29.86,NE,56,3.0,14.0,83,0.00,,,0.00,VWS V14.01,2013-08-11 08:59:00,
2013-08-11 03:04:00,83.6,77.9,29.87,NNE,18,8.0,13.0,83,0.00,,,0.00,VWS V14.01,2013-08-11 09:04:00,
2013-08-11 03:09:00,83.6,77.9,29.87,NE,49,1.0,13.0,83,0.00,,,0.00,VWS V14.01,2013-08-11 09:09:00,
2013-08-11 03:14:00,83.6,77.9,29.87,NE,56,8.0,13.0,83,0.00,,,0.00,VWS V14.01,2013-08-11 09:14:00,
2013-08-11 03:19:00,83.6,77.9,29.87,ENE,68,5.0,13.0,83,0.00,,,0.00,VWS V14.01,2013-08-11 09:19:00,
2013-08-11 03:24:00,83.6,77.9,29.87,ENE,69,4.0,13.0,83,0.00,,,0.00,VWS V14.01,2013-08-11 09:24:00,
2013-08-11 03:29:00,83.7,78.0,29.87,NE,50,5.0,13.0,83,0.00,,,0.00,VWS V14.01,2013-08-11 09:29:00,
2013-08-11 03:34:00,83.6,77.5,29.87,NE,42,10.0,13.0,82,0.00,,,0.00,VWS V14.01,2013-08-11 09:34:00,
2013-08-11 03:40:00,83.6,77.5,29.88,NNE,27,6.0,14.0,82,0.00,,,0.00,VWS V14.01,2013-08-11 09:40:00,
2013-08-11 03:45:00,83.7,78.0,29.88,NE,47,3.0,14.0,83,0.00,,,0.00,VWS V14.01,2013-08-11 09:45:00,
2013-08-11 03:50:00,83.6,77.9,29.87,North,6,5.0,14.0,83,0.00,,,0.00,VWS V14.01,2013-08-11 09:50:00,
2013-08-11 03:55:00,83.6,77.5,29.87,ENE,58,11.0,14.0,82,0.00,,,0.00,VWS V14.01,2013-08-11 09:55:00,
2013-08-11 04:00:00,83.6,77.5,29.87,ENE,65,6.0,14.0,82,0.00,,,0.00,VWS V14.01,2013-08-11 10:00:00,
2013-08-11 04:05:00,83.7,78.0,29.87,ENE,59,4.0,10.0,83,0.00,,,0.00,VWS V14.01,2013-08-11 10:05:00,
2013-08-11 04:10:00,83.7,78.0,29.86,NE,46,2.0,10.0,83,0.00,,,0.00,VWS V14.01,2013-08-11 10:10:00,
2013-08-11 04:15:00,83.5,77.4,29.86,ENE,62,5.0,12.0,82,0.00,,,0.00,VWS V14.01,2013-08-11 10:15:00,
2013-08-11 04:21:00,83.5,77.4,29.86,ENE,76,5.0,12.0,82,0.00,,,0.00,VWS V14.01,2013-08-11 10:21:00,
2013-08-11 04:26:00,83.6,77.5,29.86,NE,41,7.0,12.0,82,0.00,,,0.00,VWS V14.01,2013-08-11 10:26:00,
2013-08-11 04:31:00,83.6,77.2,29.87,NE,51,2.0,7.0,81,0.00,,,0.00,VWS V14.01,2013-08-11 10:31:00,
2013-08-11 04:36:00,83.6,77.5,29.87,East,81,4.0,10.0,82,0.00,,,0.00,VWS V14.01,2013-08-11 10:36:00,
2013-08-11 04:41:00,83.5,77.1,29.87,NE,52,6.0,11.0,81,0.00,,,0.00,VWS V14.01,2013-08-11 10:41:00,
2013-08-11 04:46:00,83.6,77.2,29.87,NE,49,8.0,11.0,81,0.00,,,0.00,VWS V14.01,2013-08-11 10:46:00,
2013-08-11 04:51:00,83.5,77.1,29.87,NE,49,4.0,13.0,81,0.00,,,0.00,VWS V14.01,2013-08-11 10:51:00,
2013-08-11 04:56:00,83.6,77.2,29.87,NW,318,2.0,13.0,81,0.00,,,0.00,VWS V14.01,2013-08-11 10:56:00,
2013-08-11 05:01:00,83.6,77.2,29.87,ENE,69,6.0,7.0,81,0.00,,,0.00,VWS V14.01,2013-08-11 11:01:00,
2013-08-11 05:06:00,83.5,77.1,29.88,NE,56,4.0,10.0,81,0.00,,,0.00,VWS V14.01,2013-08-11 11:06:00,
2013-08-11 05:11:00,83.5,77.4,29.88,ENE,59,7.0,10.0,82,0.00,,,0.00,VWS V14.01,2013-08-11 11:11:00,
2013-08-11 05:16:00,83.4,77.3,29.88,East,87,2.0,10.0,82,0.00,,,0.00,VWS V14.01,2013-08-11 11:16:00,
2013-08-11 05:21:00,83.4,77.3,29.87,NE,44,8.0,12.0,82,0.00,,,0.00,VWS V14.01,2013-08-11 11:21:00,
2013-08-11 05:26:00,83.4,77.3,29.87,ENE,70,4.0,12.0,82,0.00,,,0.00,VWS V14.01,2013-08-11 11:26:00,
2013-08-11 05:31:00,83.4,77.3,29.87,East,83,5.0,8.0,82,0.00,,,0.00,VWS V14.01,2013-08-11 11:31:00,
2013-08-11 05:37:00,83.4,77.3,29.87,East,93,6.0,9.0,82,0.00,,,0.00,VWS V14.01,2013-08-11 11:37:00,
2013-08-11 05:42:00,83.4,77.7,29.87,ENE,59,7.0,9.0,83,0.00,,,0.00,VWS V14.01,2013-08-11 11:42:00,
2013-08-11 05:47:00,83.4,77.3,29.87,East,79,3.0,12.0,82,0.00,,,0.00,VWS V14.01,2013-08-11 11:47:00,
2013-08-11 05:52:00,83.4,77.3,29.87,NE,38,2.0,12.0,82,0.00,,,0.00,VWS V14.01,2013-08-11 11:52:00,
2013-08-11 05:57:00,83.6,77.5,29.87,East,85,5.0,12.0,82,0.00,,,0.00,VWS V14.01,2013-08-11 11:57:00,
2013-08-11 06:02:00,83.7,77.6,29.87,East,79,2.0,7.0,82,0.00,,,0.00,VWS V14.01,2013-08-11 12:02:00,
2013-08-11 06:07:00,83.8,77.3,29.88,NE,46,4.0,7.0,81,0.00,,,0.00,VWS V14.01,2013-08-11 12:07:00,
2013-08-11 06:12:00,84.0,77.2,29.88,ENE,72,4.0,9.0,80,0.00,,,0.00,VWS V14.01,2013-08-11 12:12:00,
2013-08-11 06:17:00,84.2,77.4,29.88,NE,54,4.0,11.0,80,0.00,,,0.00,VWS V14.01,2013-08-11 12:17:00,
2013-08-11 06:22:00,84.4,77.6,29.89,NNE,28,4.0,11.0,80,0.00,,,0.00,VWS V14.01,2013-08-11 12:22:00,
2013-08-11 06:27:00,84.5,77.7,29.89,ENE,68,4.0,11.0,80,0.00,,,0.00,VWS V14.01,2013-08-11 12:27:00,
2013-08-11 06:32:00,84.5,78.0,29.89,ENE,77,2.0,10.0,81,0.00,,,0.00,VWS V14.01,2013-08-11 12:32:00,
2013-08-11 06:37:00,84.6,77.8,29.89,ESE,110,6.0,10.0,80,0.00,,,0.00,VWS V14.01,2013-08-11 12:37:00,
2013-08-11 06:42:00,84.8,77.6,29.89,East,79,6.0,12.0,79,0.00,,,0.00,VWS V14.01,2013-08-11 12:42:00,
2013-08-11 06:47:00,85.1,77.5,29.89,East,82,5.0,12.0,78,0.00,,,0.00,VWS V14.01,2013-08-11 12:47:00,
2013-08-11 06:52:00,85.0,77.0,29.89,ENE,58,5.0,14.0,77,0.00,,,0.00,VWS V14.01,2013-08-11 12:52:00,
2013-08-11 06:57:00,85.1,77.5,29.90,ENE,70,7.0,14.0,78,0.00,,,0.00,VWS V14.01,2013-08-11 12:57:00,
2013-08-11 07:02:00,85.1,77.1,29.90,ENE,59,8.0,11.0,77,0.00,,,0.00,VWS V14.01,2013-08-11 13:02:00,
2013-08-11 07:07:00,85.4,77.4,29.90,NE,34,10.0,11.0,77,0.00,,,0.00,VWS V14.01,2013-08-11 13:07:00,
2013-08-11 07:12:00,85.5,77.9,29.91,ENE,62,5.0,11.0,78,0.00,,,0.00,VWS V14.01,2013-08-11 13:12:00,
2013-08-11 07:17:00,85.5,77.1,29.90,ENE,75,6.0,13.0,76,0.00,,,0.00,VWS V14.01,2013-08-11 13:17:00,
2013-08-11 07:22:00,85.5,77.1,29.90,East,79,7.0,14.0,76,0.00,,,0.00,VWS V14.01,2013-08-11 13:22:00,
2013-08-11 07:27:00,85.6,77.2,29.91,ENE,74,10.0,14.0,76,0.00,,,0.00,VWS V14.01,2013-08-11 13:27:00,
2013-08-11 07:32:00,85.6,77.6,29.91,ENE,68,7.0,10.0,77,0.00,,,0.00,VWS V14.01,2013-08-11 13:32:00,
2013-08-11 07:37:00,85.6,77.6,29.91,ENE,75,17.0,17.0,77,0.00,,,0.00,VWS V14.01,2013-08-11 13:37:00,
2013-08-11 07:42:00,85.6,77.6,29.91,ENE,70,7.0,17.0,77,0.00,,,0.00,VWS V14.01,2013-08-11 13:42:00,
2013-08-11 07:47:00,85.8,77.8,29.92,East,94,9.0,17.0,77,0.00,,,0.00,VWS V14.01,2013-08-11 13:47:00,
2013-08-11 07:53:00,85.8,77.8,29.92,ENE,65,9.0,17.0,77,0.00,,,0.00,VWS V14.01,2013-08-11 13:53:00,
2013-08-11 07:58:00,86.0,77.9,29.91,East,79,8.0,17.0,77,0.00,,,0.00,VWS V14.01,2013-08-11 13:58:00,
2013-08-11 08:03:00,85.9,77.1,29.91,ENE,63,2.0,11.0,75,0.00,,,0.00,VWS V14.01,2013-08-11 14:03:00,
2013-08-11 08:08:00,86.1,77.2,29.92,ENE,72,6.0,12.0,75,0.00,,,0.00,VWS V14.01,2013-08-11 14:08:00,
2013-08-11 08:13:00,85.9,77.5,29.92,ESE,105,13.0,14.0,76,0.00,,,0.00,VWS V14.01,2013-08-11 14:13:00,
2013-08-11 08:18:00,85.8,77.4,29.92,ENE,72,11.0,15.0,76,0.00,,,0.00,VWS V14.01,2013-08-11 14:18:00,
2013-08-11 08:23:00,85.8,77.4,29.92,ENE,59,5.0,15.0,76,0.00,,,0.00,VWS V14.01,2013-08-11 14:23:00,
2013-08-11 08:28:00,86.0,77.2,29.92,NE,47,6.0,15.0,75,0.00,,,0.00,VWS V14.01,2013-08-11 14:28:00,
2013-08-11 08:34:00,86.1,77.2,29.92,NNE,18,5.0,10.0,75,0.00,,,0.00,VWS V14.01,2013-08-11 14:34:00,
2013-08-11 08:38:00,86.3,77.8,29.92,ENE,71,7.0,12.0,76,0.00,,,0.00,VWS V14.01,2013-08-11 14:38:00,
2013-08-11 08:44:00,86.3,77.4,29.92,ENE,72,6.0,12.0,75,0.00,,,0.00,VWS V14.01,2013-08-11 14:44:00,
2013-08-11 08:49:00,86.4,77.5,29.92,ENE,61,14.0,14.0,75,0.00,,,0.00,VWS V14.01,2013-08-11 14:49:00,
2013-08-11 08:54:00,86.5,77.6,29.93,NE,43,9.0,14.0,75,0.00,,,0.00,VWS V14.01,2013-08-11 14:54:00,
2013-08-11 08:59:00,86.6,77.3,29.93,ENE,69,7.0,14.0,74,0.00,,,0.00,VWS V14.01,2013-08-11 14:59:00,
2013-08-11 09:04:00,87.0,77.3,29.93,East,81,9.0,12.0,73,0.00,,,0.00,VWS V14.01,2013-08-11 15:04:00,
2013-08-11 09:09:00,86.8,77.1,29.93,NE,41,7.0,13.0,73,0.00,,,0.00,VWS V14.01,2013-08-11 15:09:00,
2013-08-11 09:14:00,86.8,77.1,29.93,NE,51,8.0,13.0,73,0.00,,,0.00,VWS V14.01,2013-08-11 15:14:00,
2013-08-11 09:19:00,86.9,76.8,29.93,East,88,11.0,15.0,72,0.00,,,0.00,VWS V14.01,2013-08-11 15:19:00,
2013-08-11 09:24:00,86.8,77.1,29.93,ENE,67,3.0,15.0,73,0.00,,,0.00,VWS V14.01,2013-08-11 15:24:00,
2013-08-11 09:29:00,87.0,76.5,29.93,East,83,13.0,15.0,71,0.00,,,0.00,VWS V14.01,2013-08-11 15:29:00,
2013-08-11 09:34:00,87.0,76.9,29.93,NE,54,8.0,12.0,72,0.00,,,0.00,VWS V14.01,2013-08-11 15:34:00,
2013-08-11 09:39:00,87.3,76.8,29.93,East,81,10.0,12.0,71,0.00,,,0.00,VWS V14.01,2013-08-11 15:39:00,
2013-08-11 09:44:00,87.5,77.4,29.93,East,86,6.0,12.0,72,0.00,,,0.00,VWS V14.01,2013-08-11 15:44:00,
2013-08-11 09:50:00,87.7,77.1,29.93,ENE,75,6.0,15.0,71,0.00,,,0.00,VWS V14.01,2013-08-11 15:50:00,
2013-08-11 09:55:00,87.9,77.3,29.92,ESE,107,7.0,15.0,71,0.00,,,0.00,VWS V14.01,2013-08-11 15:55:00,
2013-08-11 10:00:00,88.0,77.0,29.92,ENE,70,13.0,15.0,70,0.00,,,0.00,VWS V14.01,2013-08-11 16:00:00,
2013-08-11 10:05:00,87.6,77.0,29.92,ENE,68,11.0,17.0,71,0.00,,,0.00,VWS V14.01,2013-08-11 16:05:00,
2013-08-11 10:10:00,87.9,77.3,29.91,ENE,65,9.0,17.0,71,0.00,,,0.00,VWS V14.01,2013-08-11 16:10:00,
2013-08-11 10:15:00,87.9,77.3,29.92,ENE,68,9.0,17.0,71,0.00,,,0.00,VWS V14.01,2013-08-11 16:15:00,
2013-08-11 10:20:00,88.3,77.7,29.91,NE,34,7.0,17.0,71,0.00,,,0.00,VWS V14.01,2013-08-11 16:20:00,
2013-08-11 10:25:00,88.4,77.8,29.92,NE,49,7.0,17.0,71,0.00,,,0.00,VWS V14.01,2013-08-11 16:25:00,
2013-08-11 10:30:00,88.5,77.5,29.92,NE,41,5.0,17.0,70,0.00,,,0.00,VWS V14.01,2013-08-11 16:30:00,
2013-08-11 10:35:00,88.5,77.0,29.92,NNE,22,3.0,14.0,69,0.00,,,0.00,VWS V14.01,2013-08-11 16:35:00,
2013-08-11 10:41:00,88.7,77.7,29.92,NE,49,7.0,14.0,70,0.00,,,0.00,VWS V14.01,2013-08-11 16:41:00,
2013-08-11 10:46:00,88.5,77.5,29.92,NE,48,5.0,18.0,70,0.00,,,0.00,VWS V14.01,2013-08-11 16:46:00,
2013-08-11 10:51:00,88.4,77.8,29.91,NE,52,14.0,18.0,71,0.00,,,0.00,VWS V14.01,2013-08-11 16:51:00,
2013-08-11 10:56:00,88.4,77.8,29.91,ENE,70,6.0,18.0,71,0.00,,,0.00,VWS V14.01,2013-08-11 16:56:00,
2013-08-11 11:01:00,88.4,77.8,29.91,East,98,3.0,10.0,71,0.00,,,0.00,VWS V14.01,2013-08-11 17:01:00,
2013-08-11 11:06:00,88.4,77.4,29.91,NE,43,17.0,17.0,70,0.00,,,0.00,VWS V14.01,2013-08-11 17:06:00,
2013-08-11 11:11:00,87.8,76.8,29.90,ENE,68,8.0,17.0,70,0.00,,,0.00,VWS V14.01,2013-08-11 17:11:00,
2013-08-11 11:16:00,87.7,77.6,29.91,NE,53,9.0,17.0,72,0.00,,,0.00,VWS V14.01,2013-08-11 17:16:00,
2013-08-11 11:21:00,87.7,77.6,29.91,NE,53,8.0,17.0,72,0.00,,,0.00,VWS V14.01,2013-08-11 17:21:00,
2013-08-11 11:26:00,87.9,77.8,29.91,ENE,70,10.0,17.0,72,0.00,,,0.00,VWS V14.01,2013-08-11 17:26:00,
2013-08-11 11:31:00,88.4,77.8,29.91,NE,49,12.0,14.0,71,0.00,,,0.00,VWS V14.01,2013-08-11 17:31:00,
2013-08-11 11:36:00,88.3,77.7,29.90,NE,36,4.0,15.0,71,0.00,,,0.00,VWS V14.01,2013-08-11 17:36:00,
2013-08-11 11:41:00,88.6,78.0,29.90,North,8,5.0,15.0,71,0.00,,,0.00,VWS V14.01,2013-08-11 17:41:00,
2013-08-11 11:46:00,88.5,77.9,29.91,North,5,3.0,15.0,71,0.00,,,0.00,VWS V14.01,2013-08-11 17:46:00,
2013-08-11 11:51:00,88.5,78.3,29.91,NNE,13,8.0,17.0,72,0.00,,,0.00,VWS V14.01,2013-08-11 17:51:00,
2013-08-11 11:56:00,88.7,77.7,29.91,North,354,8.0,17.0,70,0.00,,,0.00,VWS V14.01,2013-08-11 17:56:00,
2013-08-11 12:01:00,88.6,78.4,29.91,NNW,348,7.0,17.0,72,0.00,,,0.00,VWS V14.01,2013-08-11 18:01:00,
2013-08-11 12:06:00,88.1,77.9,29.91,NNE,23,10.0,17.0,72,0.00,,,0.00,VWS V14.01,2013-08-11 18:06:00,
2013-08-11 12:11:00,88.7,78.9,29.91,ENE,63,2.0,17.0,73,0.00,,,0.00,VWS V14.01,2013-08-11 18:11:00,
2013-08-11 12:16:00,89.1,78.9,29.90,NNE,12,8.0,17.0,72,0.00,,,0.00,VWS V14.01,2013-08-11 18:16:00,
2013-08-11 12:21:00,89.4,78.8,29.91,NNE,19,9.0,17.0,71,0.00,,,0.00,VWS V14.01,2013-08-11 18:21:00,
2013-08-11 12:26:00,89.0,78.8,29.90,ENE,75,3.0,19.0,72,0.00,,,0.00,VWS V14.01,2013-08-11 18:26:00,
2013-08-11 12:32:00,89.4,78.8,29.90,ENE,78,7.0,12.0,71,0.00,,,0.00,VWS V14.01,2013-08-11 18:32:00,
2013-08-11 12:37:00,89.7,78.6,29.90,WNW,286,6.0,16.0,70,0.00,,,0.00,VWS V14.01,2013-08-11 18:37:00,
2013-08-11 12:42:00,89.4,78.8,29.90,NE,56,14.0,16.0,71,0.00,,,0.00,VWS V14.01,2013-08-11 18:42:00,
2013-08-11 12:47:00,89.3,78.2,29.89,ENE,61,5.0,16.0,70,0.00,,,0.00,VWS V14.01,2013-08-11 18:47:00,
2013-08-11 12:52:00,89.7,78.2,29.88,ENE,72,7.0,16.0,69,0.00,,,0.00,VWS V14.01,2013-08-11 18:52:00,
2013-08-11 12:57:00,89.5,78.0,29.88,NNW,348,2.0,17.0,69,0.00,,,0.00,VWS V14.01,2013-08-11 18:57:00,
2013-08-11 13:02:00,89.2,77.7,29.87,ENE,70,12.0,14.0,69,0.00,,,0.00,VWS V14.01,2013-08-11 19:02:00,
2013-08-11 13:09:00,89.2,77.3,29.87,ENE,70,14.0,18.0,68,0.00,,,0.00,VWS V14.01,2013-08-11 19:09:00,
2013-08-11 13:14:00,89.1,77.6,29.86,NE,41,13.0,18.0,69,0.00,,,0.00,VWS V14.01,2013-08-11 19:14:00,
2013-08-11 13:19:00,88.8,78.2,29.86,NNE,26,6.0,18.0,71,0.00,,,0.00,VWS V14.01,2013-08-11 19:19:00,
2013-08-11 13:23:00,89.0,77.9,29.86,NNW,330,8.0,18.0,70,0.00,,,0.00,VWS V14.01,2013-08-11 19:23:00,
2013-08-11 13:28:00,89.1,78.0,29.85,ENE,60,10.0,18.0,70,0.00,,,0.00,VWS V14.01,2013-08-11 19:28:00,
2013-08-11 13:34:00,88.6,77.6,29.85,NNE,23,7.0,17.0,70,0.00,,,0.00,VWS V14.01,2013-08-11 19:34:00,
2013-08-11 13:39:00,88.5,77.9,29.85,ENE,70,5.0,17.0,71,0.00,,,0.00,VWS V14.01,2013-08-11 19:39:00,
2013-08-11 13:44:00,88.6,78.0,29.86,NE,39,12.0,17.0,71,0.00,,,0.00,VWS V14.01,2013-08-11 19:44:00,
2013-08-11 13:49:00,88.5,78.3,29.86,NNE,26,9.0,17.0,72,0.00,,,0.00,VWS V14.01,2013-08-11 19:49:00,
2013-08-11 13:54:00,88.8,77.8,29.86,ENE,77,5.0,17.0,70,0.00,,,0.00,VWS V14.01,2013-08-11 19:54:00,
2013-08-11 13:59:00,89.3,78.2,29.86,NE,44,7.0,17.0,70,0.00,,,0.00,VWS V14.01,2013-08-11 19:59:00,
2013-08-11 14:04:00,89.0,77.9,29.86,NNW,328,2.0,17.0,70,0.00,,,0.00,VWS V14.01,2013-08-11 20:04:00,
2013-08-11 14:09:00,88.8,78.2,29.86,NE,53,3.0,17.0,71,0.00,,,0.00,VWS V14.01,2013-08-11 20:09:00,
2013-08-11 14:14:00,88.7,79.3,29.85,NNE,20,11.0,17.0,74,0.00,,,0.00,VWS V14.01,2013-08-11 20:14:00,
2013-08-11 14:19:00,88.4,79.5,29.85,NE,36,1.0,19.0,75,0.00,,,0.00,VWS V14.01,2013-08-11 20:19:00,
2013-08-11 14:24:00,89.0,79.2,29.84,NE,44,6.0,19.0,73,0.00,,,0.00,VWS V14.01,2013-08-11 20:24:00,
2013-08-11 14:29:00,88.7,79.8,29.84,NNE,12,4.0,19.0,75,0.00,,,0.00,VWS V14.01,2013-08-11 20:29:00,
2013-08-11 14:34:00,88.6,79.7,29.84,ENE,65,4.0,12.0,75,0.00,,,0.00,VWS V14.01,2013-08-11 20:34:00,
2013-08-11 14:39:00,88.4,79.5,29.85,NNE,20,5.0,15.0,75,0.00,,,0.00,VWS V14.01,2013-08-11 20:39:00,
2013-08-11 14:44:00,88.5,80.0,29.85,NNE,26,4.0,15.0,76,0.00,,,0.00,VWS V14.01,2013-08-11 20:44:00,
2013-08-11 14:50:00,88.5,79.6,29.85,ENE,75,5.0,15.0,75,0.00,,,0.00,VWS V14.01,2013-08-11 20:50:00,
2013-08-11 14:55:00,88.3,79.4,29.85,ENE,61,8.0,15.0,75,0.00,,,0.00,VWS V14.01,2013-08-11 20:55:00,
2013-08-11 15:00:00,87.8,79.3,29.85,NE,41,7.0,15.0,76,0.00,,,0.00,VWS V14.01,2013-08-11 21:00:00,
2013-08-11 15:05:00,87.3,79.2,29.85,North,3,9.0,13.0,77,0.00,,,0.00,VWS V14.01,2013-08-11 21:05:00,
2013-08-11 15:10:00,87.1,79.4,29.84,NNE,15,4.0,13.0,78,0.00,,,0.00,VWS V14.01,2013-08-11 21:10:00,
2013-08-11 15:15:00,87.1,79.4,29.84,ENE,59,8.0,13.0,78,0.00,,,0.00,VWS V14.01,2013-08-11 21:15:00,
2013-08-11 15:20:00,87.1,79.8,29.84,ENE,67,3.0,13.0,79,0.00,,,0.00,VWS V14.01,2013-08-11 21:20:00,
2013-08-11 15:26:00,87.0,79.3,29.84,ENE,75,4.0,14.0,78,0.00,,,0.00,VWS V14.01,2013-08-11 21:26:00,
2013-08-11 15:31:00,86.8,79.9,29.83,North,6,3.0,8.0,80,0.00,,,0.00,VWS V14.01,2013-08-11 21:31:00,
2013-08-11 15:36:00,86.6,79.7,29.82,ENE,68,3.0,12.0,80,0.00,,,0.00,VWS V14.01,2013-08-11 21:36:00,
2013-08-11 15:41:00,86.5,79.2,29.83,SE,129,6.0,12.0,79,0.00,,,0.00,VWS V14.01,2013-08-11 21:41:00,
2013-08-11 15:46:00,86.2,78.9,29.83,ENE,75,1.0,13.0,79,0.00,,,0.00,VWS V14.01,2013-08-11 21:46:00,
2013-08-11 15:51:00,86.2,78.9,29.83,East,87,0.0,13.0,79,0.00,,,0.00,VWS V14.01,2013-08-11 21:51:00,
2013-08-11 15:56:00,86.3,78.6,29.83,ENE,68,10.0,14.0,78,0.00,,,0.00,VWS V14.01,2013-08-11 21:56:00,
2013-08-11 16:01:00,86.2,78.5,29.83,ENE,63,5.0,11.0,78,0.00,,,0.00,VWS V14.01,2013-08-11 22:01:00,
2013-08-11 16:06:00,86.2,78.2,29.83,East,79,8.0,12.0,77,0.00,,,0.00,VWS V14.01,2013-08-11 22:06:00,
2013-08-11 16:11:00,86.1,77.2,29.84,ENE,74,11.0,13.0,75,0.00,,,0.00,VWS V14.01,2013-08-11 22:11:00,
2013-08-11 16:17:00,85.9,77.1,29.83,NNE,27,4.0,13.0,75,0.00,,,0.00,VWS V14.01,2013-08-11 22:17:00,
2013-08-11 16:22:00,85.7,77.3,29.83,ENE,67,6.0,13.0,76,0.00,,,0.00,VWS V14.01,2013-08-11 22:22:00,
2013-08-11 16:27:00,85.6,77.2,29.83,NE,49,4.0,13.0,76,0.00,,,0.00,VWS V14.01,2013-08-11 22:27:00,
2013-08-11 16:32:00,85.6,77.2,29.83,NE,52,4.0,13.0,76,0.00,,,0.00,VWS V14.01,2013-08-11 22:32:00,
2013-08-11 16:37:00,85.5,77.1,29.83,NE,49,5.0,13.0,76,0.00,,,0.00,VWS V14.01,2013-08-11 22:37:00,
2013-08-11 16:42:00,85.5,77.1,29.83,ENE,74,7.0,13.0,76,0.00,,,0.00,VWS V14.01,2013-08-11 22:42:00,
2013-08-11 16:47:00,85.5,77.5,29.84,NE,37,9.0,13.0,77,0.00,,,0.00,VWS V14.01,2013-08-11 22:47:00,
2013-08-11 16:52:00,85.4,77.8,29.84,ENE,70,7.0,13.0,78,0.00,,,0.00,VWS V14.01,2013-08-11 22:52:00,
2013-08-11 16:57:00,85.5,77.9,29.84,East,95,8.0,13.0,78,0.00,,,0.00,VWS V14.01,2013-08-11 22:57:00,
2013-08-11 17:02:00,85.4,77.8,29.84,NE,56,5.0,9.0,78,0.00,,,0.00,VWS V14.01,2013-08-11 23:02:00,
2013-08-11 17:07:00,85.2,77.2,29.84,ENE,64,7.0,14.0,77,0.00,,,0.00,VWS V14.01,2013-08-11 23:07:00,
2013-08-11 17:12:00,85.2,77.6,29.84,ENE,60,2.0,14.0,78,0.00,,,0.00,VWS V14.01,2013-08-11 23:12:00,
2013-08-11 17:17:00,85.2,77.9,29.84,NE,49,2.0,14.0,79,0.00,,,0.00,VWS V14.01,2013-08-11 23:17:00,
2013-08-11 17:22:00,85.1,77.9,29.84,ENE,72,5.0,14.0,79,0.00,,,0.00,VWS V14.01,2013-08-11 23:22:00,
2013-08-11 17:27:00,85.0,78.1,29.84,ENE,77,5.0,14.0,80,0.00,,,0.00,VWS V14.01,2013-08-11 23:27:00,
2013-08-11 17:32:00,85.0,78.1,29.85,ENE,62,6.0,9.0,80,0.00,,,0.00,VWS V14.01,2013-08-11 23:32:00,
2013-08-11 17:37:00,84.9,78.0,29.84,ENE,62,4.0,11.0,80,0.00,,,0.00,VWS V14.01,2013-08-11 23:37:00,
2013-08-11 17:42:00,84.9,78.4,29.85,NE,56,8.0,17.0,81,0.00,,,0.00,VWS V14.01,2013-08-11 23:42:00,
2013-08-11 17:47:00,84.8,78.3,29.86,ESE,120,8.0,20.0,81,0.00,,,0.00,VWS V14.01,2013-08-11 23:47:00,
2013-08-11 17:53:00,84.7,78.2,29.86,ENE,58,11.0,20.0,81,0.00,,,0.00,VWS V14.01,2013-08-11 23:53:00,
2013-08-11 17:58:00,84.7,78.2,29.85,ENE,71,16.0,20.0,81,0.00,,,0.00,VWS V14.01,2013-08-11 23:58:00,
2013-08-11 18:03:00,84.6,78.1,29.85,ENE,68,5.0,16.0,81,0.00,,,0.00,VWS V14.01,2013-08-12 00:03:00,
2013-08-11 18:08:00,84.6,78.5,29.85,NNE,12,10.0,16.0,82,0.00,,,0.00,VWS V14.01,2013-08-12 00:08:00,
2013-08-11 18:13:00,84.4,78.3,29.85,NE,56,8.0,16.0,82,0.00,,,0.00,VWS V14.01,2013-08-12 00:13:00,
2013-08-11 18:18:00,84.4,78.3,29.86,ENE,58,9.0,16.0,82,0.00,,,0.00,VWS V14.01,2013-08-12 00:18:00,
2013-08-11 18:23:00,84.4,78.3,29.86,ENE,57,8.0,16.0,82,0.00,,,0.00,VWS V14.01,2013-08-12 00:23:00,
2013-08-11 18:28:00,84.3,78.2,29.86,ENE,68,2.0,16.0,82,0.00,,,0.00,VWS V14.01,2013-08-12 00:28:00,
2013-08-11 18:33:00,84.3,78.2,29.86,East,100,2.0,11.0,82,0.00,,,0.00,VWS V14.01,2013-08-12 00:33:00,
2013-08-11 18:38:00,84.2,78.1,29.86,ESE,102,4.0,11.0,82,0.00,,,0.00,VWS V14.01,2013-08-12 00:38:00,
2013-08-11 18:43:00,84.2,78.1,29.86,NE,53,10.0,14.0,82,0.00,,,0.00,VWS V14.01,2013-08-12 00:43:00,
2013-08-11 18:48:00,84.3,78.6,29.87,NNE,30,6.0,14.0,83,0.00,,,0.00,VWS V14.01,2013-08-12 00:48:00,
2013-08-11 18:53:00,84.3,78.6,29.87,NE,45,9.0,15.0,83,0.00,,,0.00,VWS V14.01,2013-08-12 00:53:00,
2013-08-11 18:58:00,84.3,78.2,29.87,East,86,7.0,16.0,82,0.00,,,0.00,VWS V14.01,2013-08-12 00:58:00,
2013-08-11 19:03:00,84.4,78.7,29.88,East,86,2.0,14.0,83,0.00,,,0.00,VWS V14.01,2013-08-12 01:03:00,
2013-08-11 19:08:00,84.4,78.7,29.88,ENE,64,10.0,14.0,83,0.00,,,0.00,VWS V14.01,2013-08-12 01:08:00,
2013-08-11 19:13:00,84.4,78.7,29.88,NE,56,7.0,16.0,83,0.00,,,0.00,VWS V14.01,2013-08-12 01:13:00,
2013-08-11 19:18:00,84.5,78.8,29.88,NE,47,5.0,16.0,83,0.00,,,0.00,VWS V14.01,2013-08-12 01:18:00,
2013-08-11 19:23:00,84.6,79.2,29.89,NNE,12,8.0,16.0,84,0.00,,,0.00,VWS V14.01,2013-08-12 01:23:00,
2013-08-11 19:28:00,84.5,78.8,29.89,East,80,9.0,16.0,83,0.00,,,0.00,VWS V14.01,2013-08-12 01:28:00,
2013-08-11 19:33:00,84.5,78.4,29.89,ENE,62,5.0,14.0,82,0.00,,,0.00,VWS V14.01,2013-08-12 01:33:00,
2013-08-11 19:39:00,84.5,78.8,29.89,East,86,5.0,14.0,83,0.00,,,0.00,VWS V14.01,2013-08-12 01:39:00,
2013-08-11 19:44:00,84.5,78.8,29.89,ENE,77,11.0,14.0,83,0.00,,,0.00,VWS V14.01,2013-08-12 01:44:00,
2013-08-11 19:49:00,84.4,79.0,29.89,ESE,105,4.0,14.0,84,0.00,,,0.00,VWS V14.01,2013-08-12 01:49:00,
2013-08-11 19:54:00,84.4,79.0,29.89,ENE,76,9.0,14.0,84,0.00,,,0.00,VWS V14.01,2013-08-12 01:54:00,
2013-08-11 19:59:00,84.3,78.6,29.89,SE,127,6.0,17.0,83,0.00,,,0.00,VWS V14.01,2013-08-12 01:59:00,
2013-08-11 20:04:00,84.1,77.6,29.89,East,98,6.0,13.0,81,0.00,,,0.00,VWS V14.01,2013-08-12 02:04:00,
2013-08-11 20:09:00,84.1,76.9,29.89,ENE,58,9.0,19.0,79,0.00,,,0.00,VWS V14.01,2013-08-12 02:09:00,
2013-08-11 20:14:00,84.2,77.4,29.90,NE,47,10.0,19.0,80,0.00,,,0.00,VWS V14.01,2013-08-12 02:14:00,
2013-08-11 20:19:00,84.2,77.4,29.90,East,91,8.0,19.0,80,0.00,,,0.00,VWS V14.01,2013-08-12 02:19:00,
2013-08-11 20:24:00,84.2,77.4,29.90,NE,49,11.0,19.0,80,0.00,,,0.00,VWS V14.01,2013-08-12 02:24:00,
2013-08-11 20:29:00,84.2,77.4,29.90,NE,56,10.0,19.0,80,0.00,,,0.00,VWS V14.01,2013-08-12 02:29:00,
2013-08-11 20:34:00,84.3,77.8,29.90,East,79,5.0,16.0,81,0.00,,,0.00,VWS V14.01,2013-08-12 02:34:00,
2013-08-11 20:40:00,84.2,77.4,29.90,ENE,73,5.0,16.0,80,0.00,,,0.00,VWS V14.01,2013-08-12 02:40:00,
2013-08-11 20:45:00,84.2,77.7,29.90,ENE,58,9.0,18.0,81,0.00,,,0.00,VWS V14.01,2013-08-12 02:45:00,
2013-08-11 20:50:00,84.2,77.4,29.91,ENE,75,10.0,18.0,80,0.00,,,0.00,VWS V14.01,2013-08-12 02:50:00,
2013-08-11 20:55:00,84.3,77.5,29.91,NE,49,6.0,19.0,80,0.00,,,0.00,VWS V14.01,2013-08-12 02:55:00,
2013-08-11 21:00:00,84.3,77.5,29.92,NE,54,9.0,19.0,80,0.00,,,0.00,VWS V14.01,2013-08-12 03:00:00,
2013-08-11 21:05:00,84.3,77.8,29.92,East,98,6.0,18.0,81,0.00,,,0.00,VWS V14.01,2013-08-12 03:05:00,
2013-08-11 21:10:00,84.3,77.8,29.92,NE,53,6.0,18.0,81,0.00,,,0.00,VWS V14.01,2013-08-12 03:10:00,
2013-08-11 21:15:00,84.2,77.7,29.92,ENE,72,5.0,18.0,81,0.00,,,0.00,VWS V14.01,2013-08-12 03:15:00,
2013-08-11 21:20:00,84.1,78.0,29.92,NE,50,7.0,18.0,82,0.00,,,0.00,VWS V14.01,2013-08-12 03:20:00,
2013-08-11 21:25:00,84.1,78.0,29.92,North,8,5.0,18.0,82,0.00,,,0.00,VWS V14.01,2013-08-12 03:25:00,
2013-08-11 21:31:00,84.1,78.0,29.92,East,98,5.0,7.0,82,0.00,,,0.00,VWS V14.01,2013-08-12 03:31:00,
2013-08-11 21:36:00,84.0,78.3,29.92,East,94,5.0,11.0,83,0.00,,,0.00,VWS V14.01,2013-08-12 03:36:00,
2013-08-11 21:41:00,83.9,77.8,29.92,ENE,69,6.0,15.0,82,0.00,,,0.00,VWS V14.01,2013-08-12 03:41:00,
2013-08-11 21:46:00,83.9,77.8,29.92,ENE,68,11.0,15.0,82,0.00,,,0.00,VWS V14.01,2013-08-12 03:46:00,
2013-08-11 21:51:00,83.8,77.3,29.92,ENE,68,8.0,15.0,81,0.00,,,0.00,VWS V14.01,2013-08-12 03:51:00,
2013-08-11 21:56:00,83.9,77.4,29.92,NNE,22,4.0,15.0,81,0.00,,,0.00,VWS V14.01,2013-08-12 03:56:00,
2013-08-11 22:01:00,83.9,77.4,29.92,NNE,30,8.0,10.0,81,0.00,,,0.00,VWS V14.01,2013-08-12 04:01:00,
2013-08-11 22:04:00,83.9,77.4,29.91,ENE,63,6.0,13.0,81,0.00,,,0.00,VWS V14.01,2013-08-12 04:04:00,
2013-08-11 22:09:00,83.9,77.1,29.91,East,84,10.0,14.0,80,0.00,,,0.00,VWS V14.01,2013-08-12 04:09:00,
2013-08-11 22:14:00,84.0,77.2,29.91,ENE,72,4.0,14.0,80,0.00,,,0.00,VWS V14.01,2013-08-12 04:14:00,
2013-08-11 22:19:00,84.0,77.5,29.91,ENE,75,7.0,16.0,81,0.00,,,0.00,VWS V14.01,2013-08-12 04:19:00,
2013-08-11 22:24:00,84.0,77.2,29.91,NE,50,4.0,16.0,80,0.00,,,0.00,VWS V14.01,2013-08-12 04:24:00,
2013-08-11 22:29:00,84.0,77.5,29.90,ENE,69,9.0,16.0,81,0.00,,,0.00,VWS V14.01,2013-08-12 04:29:00,
2013-08-11 22:34:00,83.9,77.4,29.91,ESE,113,8.0,15.0,81,0.00,,,0.00,VWS V14.01,2013-08-12 04:34:00,
2013-08-11 22:39:00,84.0,77.9,29.91,NE,52,7.0,18.0,82,0.00,,,0.00,VWS V14.01,2013-08-12 04:39:00,
2013-08-11 22:44:00,84.0,77.9,29.91,NE,54,7.0,18.0,82,0.00,,,0.00,VWS V14.01,2013-08-12 04:44:00,
2013-08-11 22:49:00,84.0,77.9,29.91,NNE,25,12.0,18.0,82,0.00,,,0.00,VWS V14.01,2013-08-12 04:49:00,
2013-08-11 22:54:00,84.0,77.5,29.91,ENE,68,6.0,18.0,81,0.00,,,0.00,VWS V14.01,2013-08-12 04:54:00,
2013-08-11 22:59:00,84.1,77.6,29.91,ENE,75,9.0,18.0,81,0.00,,,0.00,VWS V14.01,2013-08-12 04:59:00,
2013-08-11 23:04:00,84.1,77.6,29.91,NE,44,8.0,17.0,81,0.00,,,0.00,VWS V14.01,2013-08-12 05:04:00,
2013-08-11 23:09:00,84.1,78.0,29.91,NE,49,12.0,17.0,82,0.00,,,0.00,VWS V14.01,2013-08-12 05:09:00,
2013-08-11 23:14:00,84.0,77.9,29.91,ENE,72,11.0,17.0,82,0.00,,,0.00,VWS V14.01,2013-08-12 05:14:00,
2013-08-11 23:19:00,83.9,77.4,29.91,ENE,65,12.0,17.0,81,0.00,,,0.00,VWS V14.01,2013-08-12 05:19:00,
2013-08-11 23:24:00,84.0,77.9,29.91,ESE,108,7.0,21.0,82,0.00,,,0.00,VWS V14.01,2013-08-12 05:24:00,
2013-08-11 23:29:00,83.9,77.8,29.91,ENE,62,10.0,21.0,82,0.00,,,0.00,VWS V14.01,2013-08-12 05:29:00,
2013-08-11 23:34:00,83.9,77.8,29.91,ENE,62,14.0,14.0,82,0.00,,,0.00,VWS V14.01,2013-08-12 05:34:00,
2013-08-11 23:39:00,83.9,77.4,29.91,ENE,74,8.0,18.0,81,0.00,,,0.00,VWS V14.01,2013-08-12 05:39:00,
2013-08-11 23:44:00,83.8,77.3,29.90,ENE,68,11.0,18.0,81,0.00,,,0.00,VWS V14.01,2013-08-12 05:44:00,
2013-08-11 23:49:00,83.9,77.4,29.90,NE,46,10.0,18.0,81,0.00,,,0.00,VWS V14.01,2013-08-12 05:49:00,
2013-08-11 23:54:00,83.8,77.3,29.90,ENE,70,4.0,18.0,81,0.00,,,0.00,VWS V14.01,2013-08-12 05:54:00,
2013-08-11 23:59:00,83.8,77.3,29.90,NE,37,7.0,18.0,81,0.00,,,0.00,VWS V14.01,2013-08-12 05:59:00,